Time;durP1;ratioP1;P1;durP2;ratioP2;P2;SDS_P1;SDS_P2;PMS_P1;PMS_P2;Temp;Humidity;BMP_temperature;BMP_pressure;BME280_temperature;BME280_humidity;BME280_pressure;Samples;Min_cycle;Max_cycle;Signal;HPM_P1;HPM_P2
2023/10/01 00:01:18;;;;;;;13.68;5.90;;;14.80;88.10;;;;;;5017869;28;20057;-71
2023/10/01 00:03:43;;;;;;;17.83;6.90;;;14.70;88.10;;;;;;5016275;28;20053;-76
2023/10/01 00:06:09;;;;;;;16.65;7.25;;;14.70;88.20;;;;;;5019454;28;20033;-71
2023/10/01 00:08:35;;;;;;;14.25;6.80;;;14.70;88.20;;;;;;5009806;28;20048;-72
2023/10/01 00:11:02;;;;;;;14.52;6.07;;;14.70;88.30;;;;;;5020191;28;20029;-73
2023/10/01 00:13:28;;;;;;;14.68;6.97;;;14.70;88.30;;;;;;5018255;28;21870;-71
2023/10/01 00:15:55;;;;;;;16.73;6.95;;;14.70;88.40;;;;;;5020129;28;20386;-71
2023/10/01 00:18:21;;;;;;;17.55;7.28;;;14.60;88.40;;;;;;5021153;28;20124;-72
2023/10/01 00:20:47;;;;;;;12.45;6.95;;;14.60;88.40;;;;;;5020376;28;20060;-74
2023/10/01 00:23:12;;;;;;;14.30;6.75;;;14.60;88.50;;;;;;5013032;28;20365;-74
2023/10/01 00:25:38;;;;;;;14.75;6.70;;;14.60;88.40;;;;;;5020467;28;20029;-72
2023/10/01 00:28:06;;;;;;;13.02;6.07;;;14.60;88.50;;;;;;5018412;28;20060;-70
2023/10/01 00:30:32;;;;;;;15.70;7.80;;;14.60;88.50;;;;;;5017544;28;20063;-74
2023/10/01 00:32:59;;;;;;;14.38;7.40;;;14.60;88.50;;;;;;5017860;28;20045;-74
2023/10/01 00:35:26;;;;;;;15.80;6.95;;;14.60;88.50;;;;;;5019764;28;20033;-70
2023/10/01 00:37:52;;;;;;;16.85;7.63;;;14.60;88.60;;;;;;5006376;28;20064;-73
2023/10/01 00:40:18;;;;;;;15.10;6.80;;;14.60;88.60;;;;;;5017904;28;20025;-73
2023/10/01 00:42:44;;;;;;;14.63;7.00;;;14.60;88.70;;;;;;5014322;28;20288;-70
2023/10/01 00:45:14;;;;;;;16.08;7.10;;;14.60;88.80;;;;;;5011829;28;20069;-74
2023/10/01 00:47:41;;;;;;;16.70;7.38;;;14.50;88.80;;;;;;5012153;28;20383;-72
2023/10/01 00:50:15;;;;;;;15.13;6.80;;;14.60;88.80;;;;;;5010690;28;20049;-71
2023/10/01 00:52:42;;;;;;;16.73;7.78;;;14.50;88.90;;;;;;5015001;28;20030;-71
2023/10/01 00:55:08;;;;;;;16.27;7.28;;;14.60;88.90;;;;;;5013378;28;20037;-72
2023/10/01 00:57:37;;;;;;;14.95;7.18;;;14.50;89.00;;;;;;5011830;28;20138;-72
2023/10/01 01:00:05;;;;;;;14.52;7.47;;;14.50;89.00;;;;;;5012532;28;20147;-72
2023/10/01 01:02:35;;;;;;;14.93;6.47;;;14.50;89.00;;;;;;5016330;28;20026;-73
2023/10/01 01:05:19;;;;;;;14.13;6.38;;;14.50;88.90;;;;;;5017073;28;20038;-71
2023/10/01 01:07:47;;;;;;;18.58;7.35;;;14.50;89.00;;;;;;5016085;28;20171;-73
2023/10/01 01:10:16;;;;;;;15.85;6.88;;;14.50;89.10;;;;;;5017109;28;20052;-71
2023/10/01 01:12:45;;;;;;;16.33;7.32;;;14.50;89.10;;;;;;5017752;28;20515;-73
2023/10/01 01:15:14;;;;;;;14.88;7.68;;;14.50;89.20;;;;;;5018909;28;20029;-75
2023/10/01 01:17:43;;;;;;;14.55;6.63;;;14.50;89.20;;;;;;5020040;28;20021;-72
2023/10/01 01:20:09;;;;;;;14.90;6.95;;;14.40;89.30;;;;;;5020866;28;20505;-72
2023/10/01 01:22:39;;;;;;;16.38;7.40;;;14.40;89.30;;;;;;5018081;28;20136;-73
2023/10/01 01:25:10;;;;;;;16.08;7.15;;;14.40;89.30;;;;;;5011862;28;20030;-72
2023/10/01 01:27:40;;;;;;;15.38;7.70;;;14.40;89.40;;;;;;5020419;28;20084;-72
2023/10/01 01:30:09;;;;;;;16.27;7.63;;;14.40;89.30;;;;;;5014876;28;20044;-72
2023/10/01 01:32:37;;;;;;;13.52;6.93;;;14.30;89.40;;;;;;5003148;28;20386;-72
2023/10/01 01:35:05;;;;;;;14.35;7.13;;;14.30;89.50;;;;;;5017156;28;20095;-71
2023/10/01 01:37:46;;;;;;;15.20;7.40;;;14.30;89.60;;;;;;5031222;28;20014;-74
2023/10/01 01:40:25;;;;;;;16.73;7.22;;;14.30;89.60;;;;;;5028847;28;20059;-72
2023/10/01 01:42:56;;;;;;;15.10;7.82;;;14.20;89.70;;;;;;5028623;28;20057;-72
2023/10/01 01:45:27;;;;;;;15.57;7.95;;;14.20;89.70;;;;;;5021793;28;20034;-72
2023/10/01 01:47:53;;;;;;;16.35;8.35;;;14.20;89.70;;;;;;5018209;28;20043;-73
2023/10/01 01:50:31;;;;;;;18.27;7.30;;;14.20;89.70;;;;;;5020905;28;20120;-73
2023/10/01 01:52:57;;;;;;;13.13;7.82;;;14.20;89.60;;;;;;5018748;28;20180;-73
2023/10/01 01:55:28;;;;;;;16.10;7.30;;;14.20;89.70;;;;;;5022243;28;20054;-72
2023/10/01 02:00:47;;;;;;;16.08;7.72;;;14.20;89.70;;;;;;5019921;28;20603;-73
2023/10/01 02:03:14;;;;;;;13.68;6.82;;;14.20;89.50;;;;;;5019520;28;20109;-72
2023/10/01 02:05:47;;;;;;;15.00;7.47;;;14.10;89.60;;;;;;5017036;28;20029;-73
2023/10/01 02:08:34;;;;;;;16.48;7.47;;;14.20;89.50;;;;;;5022814;28;20069;-73
2023/10/01 02:11:05;;;;;;;13.98;8.00;;;14.20;89.60;;;;;;5023856;28;20017;-71
2023/10/01 02:13:32;;;;;;;15.00;7.32;;;14.10;89.50;;;;;;5021350;28;20076;-75
2023/10/01 02:16:18;;;;;;;14.68;7.20;;;14.10;89.60;;;;;;5019302;28;20053;-76
2023/10/01 02:18:55;;;;;;;15.27;7.53;;;14.10;89.60;;;;;;5018898;28;20025;-74
2023/10/01 02:21:43;;;;;;;16.85;7.45;;;14.10;89.70;;;;;;5018388;28;20121;-73
2023/10/01 02:24:19;;;;;;;14.40;7.20;;;14.10;89.70;;;;;;5017171;28;20018;-72
2023/10/01 02:26:48;;;;;;;16.60;7.60;;;14.20;89.70;;;;;;5018129;28;20113;-71
2023/10/01 02:29:14;;;;;;;16.65;7.53;;;14.10;89.70;;;;;;5022205;28;20107;-74
2023/10/01 02:31:48;;;;;;;16.35;8.27;;;14.10;89.70;;;;;;5022375;28;20741;-69
2023/10/01 02:34:14;;;;;;;15.85;8.23;;;14.10;89.70;;;;;;5020090;28;20448;-70
2023/10/01 02:36:42;;;;;;;16.98;8.13;;;14.10;89.80;;;;;;5019203;28;20045;-73
2023/10/01 02:39:20;;;;;;;17.98;7.80;;;14.10;89.90;;;;;;5020564;28;20052;-71
2023/10/01 02:44:47;;;;;;;14.73;7.82;;;14.10;90.00;;;;;;5018099;28;20041;-71
2023/10/01 02:47:23;;;;;;;16.25;7.80;;;14.10;89.90;;;;;;5019392;28;20105;-71
2023/10/01 02:49:52;;;;;;;13.88;7.32;;;14.10;90.00;;;;;;5017844;28;20033;-71
2023/10/01 02:52:21;;;;;;;15.15;7.82;;;14.10;90.00;;;;;;5015825;28;20050;-70
2023/10/01 02:54:53;;;;;;;18.35;7.22;;;14.10;90.00;;;;;;5017971;28;20041;-71
2023/10/01 02:57:26;;;;;;;16.25;8.55;;;14.10;90.10;;;;;;5022683;28;20464;-72
2023/10/01 03:02:39;;;;;;;16.65;8.38;;;14.10;90.20;;;;;;5020878;28;20027;-73
2023/10/01 03:05:08;;;;;;;16.30;7.72;;;14.00;90.20;;;;;;5014051;28;20022;-71
2023/10/01 03:07:40;;;;;;;17.80;8.02;;;14.00;90.30;;;;;;5018854;28;20367;-71
2023/10/01 03:10:46;;;;;;;16.20;8.73;;;14.00;90.40;;;;;;5018788;28;20033;-71
2023/10/01 03:13:14;;;;;;;14.82;7.75;;;14.00;90.40;;;;;;5017646;28;20021;-75
2023/10/01 03:15:41;;;;;;;13.10;7.75;;;14.00;90.50;;;;;;5018603;28;20034;-70
2023/10/01 03:18:55;;;;;;;16.10;8.93;;;14.00;90.50;;;;;;5019567;28;20069;-72
2023/10/01 03:26:03;;;;;;;17.17;8.65;;;13.90;90.80;;;;;;5016701;28;20373;-73
2023/10/01 03:29:13;;;;;;;17.08;8.02;;;13.90;90.80;;;;;;5017749;28;20046;-72
2023/10/01 03:31:20;;;;;;;15.80;8.30;;;13.90;90.70;;;;;;5010784;28;20385;-72
2023/10/01 03:33:46;;;;;;;17.08;8.70;;;13.90;90.80;;;;;;5018797;28;20475;-73
2023/10/01 03:36:12;;;;;;;19.33;9.40;;;13.90;90.90;;;;;;5013121;28;20435;-71
2023/10/01 03:38:44;;;;;;;15.52;8.50;;;13.90;90.90;;;;;;5021150;28;20041;-73
2023/10/01 03:41:21;;;;;;;15.95;8.90;;;13.90;91.00;;;;;;5017279;28;20033;-72
2023/10/01 03:43:50;;;;;;;18.70;8.93;;;13.80;90.90;;;;;;5023006;28;20072;-71
2023/10/01 03:49:01;;;;;;;18.85;8.70;;;13.70;91.10;;;;;;5016321;28;20045;-74
2023/10/01 03:51:52;;;;;;;16.38;8.88;;;13.70;91.30;;;;;;5017414;28;20057;-73
2023/10/01 03:54:52;;;;;;;16.58;8.50;;;13.80;91.30;;;;;;5017962;28;20563;-72
2023/10/01 03:57:11;;;;;;;16.95;8.82;;;13.70;91.30;;;;;;5015620;28;20107;-74
2023/10/01 03:59:38;;;;;;;17.23;9.38;;;13.70;91.40;;;;;;5014564;28;20029;-74
2023/10/01 04:02:26;;;;;;;15.13;8.65;;;13.70;91.40;;;;;;5016709;28;20022;-73
2023/10/01 04:04:58;;;;;;;19.40;9.63;;;13.80;91.40;;;;;;5015729;28;20026;-72
2023/10/01 04:07:26;;;;;;;17.95;9.45;;;13.70;91.40;;;;;;5012663;28;20034;-74
2023/10/01 04:09:54;;;;;;;20.25;10.05;;;13.70;91.60;;;;;;5014347;28;20165;-71
2023/10/01 04:12:27;;;;;;;19.08;9.20;;;13.60;91.60;;;;;;5018166;28;20025;-73
2023/10/01 04:14:54;;;;;;;16.38;9.00;;;13.70;91.80;;;;;;5013835;28;20050;-73
2023/10/01 04:17:20;;;;;;;14.73;9.65;;;13.70;91.80;;;;;;5011507;28;20029;-75
2023/10/01 04:19:56;;;;;;;17.83;9.95;;;13.60;91.90;;;;;;5015290;28;20088;-72
2023/10/01 04:22:25;;;;;;;17.80;9.25;;;13.70;92.00;;;;;;5017763;28;20188;-72
2023/10/01 04:25:01;;;;;;;17.17;10.40;;;13.70;91.90;;;;;;5014544;28;20044;-73
2023/10/01 04:27:34;;;;;;;17.50;9.57;;;13.80;91.80;;;;;;5015877;28;20033;-73
2023/10/01 04:30:01;;;;;;;18.75;10.15;;;13.80;91.80;;;;;;5015545;28;20057;-71
2023/10/01 04:32:30;;;;;;;17.25;9.93;;;13.70;91.80;;;;;;5019744;28;20029;-76
2023/10/01 04:34:59;;;;;;;20.67;9.93;;;13.70;91.80;;;;;;5014885;28;20063;-74
2023/10/01 04:37:37;;;;;;;18.77;9.52;;;13.70;91.80;;;;;;5019758;28;20051;-72
2023/10/01 04:42:50;;;;;;;16.75;9.05;;;13.70;91.80;;;;;;5013113;28;20041;-72
2023/10/01 04:45:34;;;;;;;20.50;9.82;;;13.70;91.80;;;;;;5017966;28;20029;-72
2023/10/01 04:48:02;;;;;;;19.85;9.40;;;13.70;91.80;;;;;;5019254;28;20041;-73
2023/10/01 04:50:29;;;;;;;16.77;9.43;;;13.60;91.90;;;;;;5015850;28;20152;-71
2023/10/01 04:53:01;;;;;;;20.38;10.77;;;13.70;92.00;;;;;;5017208;28;20018;-71
2023/10/01 04:55:28;;;;;;;18.50;10.32;;;13.60;92.00;;;;;;5017595;28;20145;-72
2023/10/01 04:57:55;;;;;;;19.10;9.50;;;13.70;92.10;;;;;;5010788;28;21091;-71
2023/10/01 05:00:23;;;;;;;18.85;9.50;;;13.70;92.10;;;;;;5018496;28;20105;-72
2023/10/01 05:02:50;;;;;;;20.90;9.88;;;13.60;92.10;;;;;;5013449;28;20479;-75
2023/10/01 05:05:25;;;;;;;19.23;9.65;;;13.60;92.20;;;;;;5010381;28;20258;-72
2023/10/01 05:07:55;;;;;;;18.60;9.82;;;13.70;92.20;;;;;;5016362;28;20133;-75
2023/10/01 05:10:21;;;;;;;17.45;9.50;;;13.70;92.10;;;;;;5020685;28;20045;-70
2023/10/01 05:12:46;;;;;;;16.67;9.70;;;13.60;92.20;;;;;;5014096;28;20029;-71
2023/10/01 05:15:24;;;;;;;18.40;9.98;;;13.60;92.20;;;;;;5012100;28;20502;-71
2023/10/01 05:17:55;;;;;;;18.00;9.90;;;13.60;92.20;;;;;;5017003;28;20025;-75
2023/10/01 05:20:22;;;;;;;20.25;9.27;;;13.60;92.40;;;;;;5014381;28;20115;-74
2023/10/01 05:22:50;;;;;;;17.67;9.98;;;13.60;92.30;;;;;;5008048;28;20026;-74
2023/10/01 05:25:18;;;;;;;20.95;10.00;;;13.60;92.30;;;;;;5014236;28;20313;-71
2023/10/01 05:27:45;;;;;;;20.23;10.75;;;13.70;92.20;;;;;;5012952;28;20091;-72
2023/10/01 05:32:58;;;;;;;19.08;11.15;;;13.60;92.30;;;;;;5010986;28;20423;-73
2023/10/01 05:35:25;;;;;;;18.30;10.15;;;13.60;92.40;;;;;;5016086;28;20558;-74
2023/10/01 05:37:50;;;;;;;16.90;9.68;;;13.60;92.40;;;;;;5017076;28;20037;-71
2023/10/01 05:40:16;;;;;;;20.00;10.23;;;13.60;92.50;;;;;;5014922;28;20451;-71
2023/10/01 05:42:44;;;;;;;18.65;10.23;;;13.60;92.50;;;;;;5012128;28;20331;-74
2023/10/01 05:45:19;;;;;;;17.83;10.55;;;13.60;92.60;;;;;;5008048;28;20480;-71
2023/10/01 05:47:51;;;;;;;16.63;10.13;;;13.60;92.70;;;;;;5011549;28;20288;-72
2023/10/01 05:50:18;;;;;;;21.90;11.13;;;13.60;92.60;;;;;;5005818;28;20602;-71
2023/10/01 05:52:47;;;;;;;17.63;10.32;;;13.60;92.60;;;;;;5006639;28;20022;-73
2023/10/01 05:55:15;;;;;;;19.27;11.32;;;13.60;92.70;;;;;;5009090;28;20034;-74
2023/10/01 05:57:41;;;;;;;19.05;10.93;;;13.60;92.70;;;;;;5013300;28;20579;-71
2023/10/01 06:00:18;;;;;;;20.25;11.13;;;13.60;92.70;;;;;;5008501;28;20121;-71
2023/10/01 06:02:47;;;;;;;19.30;10.32;;;13.60;92.70;;;;;;5008435;28;20017;-71
2023/10/01 06:05:28;;;;;;;17.85;10.27;;;13.60;92.80;;;;;;5013848;28;20052;-73
2023/10/01 06:07:55;;;;;;;20.30;10.60;;;13.60;92.70;;;;;;5011318;28;20034;-72
2023/10/01 06:10:26;;;;;;;19.92;10.77;;;13.60;92.70;;;;;;5009904;28;20022;-71
2023/10/01 06:12:56;;;;;;;17.15;10.45;;;13.70;92.60;;;;;;5009964;28;20036;-73
2023/10/01 06:15:25;;;;;;;20.40;10.43;;;13.70;92.60;;;;;;5010850;28;20543;-72
2023/10/01 06:17:51;;;;;;;16.10;9.48;;;13.70;92.50;;;;;;5010811;28;20036;-74
2023/10/01 06:20:26;;;;;;;18.30;11.43;;;13.70;92.60;;;;;;5012499;28;20038;-71
2023/10/01 06:22:55;;;;;;;16.50;9.73;;;13.80;92.70;;;;;;5009574;28;20025;-72
2023/10/01 06:25:37;;;;;;;19.90;10.32;;;14.00;92.60;;;;;;5012566;28;20464;-71
2023/10/01 06:28:10;;;;;;;18.23;10.57;;;14.20;92.50;;;;;;5010396;28;20069;-72
2023/10/01 06:30:39;;;;;;;18.42;9.85;;;14.50;91.80;;;;;;5013359;28;20041;-71
2023/10/01 06:33:09;;;;;;;17.45;10.05;;;14.60;90.80;;;;;;5010351;28;20514;-73
2023/10/01 06:35:56;;;;;;;20.52;10.48;;;14.60;90.10;;;;;;5011812;28;20042;-71
2023/10/01 06:38:22;;;;;;;18.85;9.68;;;14.70;90.10;;;;;;5012701;28;20064;-75
2023/10/01 06:40:47;;;;;;;17.45;9.20;;;14.60;89.90;;;;;;5011267;28;20122;-71
2023/10/01 06:43:15;;;;;;;20.65;11.48;;;14.60;90.20;;;;;;5011618;28;20060;-72
2023/10/01 06:45:41;;;;;;;17.80;8.73;;;14.60;90.30;;;;;;5010831;28;20029;-73
2023/10/01 06:48:10;;;;;;;18.58;10.32;;;14.60;90.50;;;;;;5008930;28;20049;-71
2023/10/01 06:50:39;;;;;;;16.83;9.93;;;14.60;90.40;;;;;;5010093;28;20065;-75
2023/10/01 06:53:07;;;;;;;19.88;9.70;;;14.70;90.40;;;;;;5014847;28;20033;-76
2023/10/01 06:55:36;;;;;;;21.08;9.70;;;14.70;90.30;;;;;;5014193;28;20054;-72
2023/10/01 06:58:06;;;;;;;17.73;9.98;;;14.70;90.20;;;;;;5018132;28;20504;-71
2023/10/01 07:00:35;;;;;;;16.95;9.48;;;14.80;90.30;;;;;;5010558;28;20037;-76
2023/10/01 07:03:22;;;;;;;18.92;9.85;;;14.80;90.20;;;;;;5015997;28;20026;-72
2023/10/01 07:05:55;;;;;;;24.05;11.35;;;14.80;90.30;;;;;;5017013;28;20036;-73
2023/10/01 07:08:37;;;;;;;19.02;10.07;;;14.80;90.30;;;;;;5010658;28;20115;-74
2023/10/01 07:11:11;;;;;;;21.40;10.40;;;14.80;90.40;;;;;;5019032;28;20073;-71
2023/10/01 07:13:40;;;;;;;;;;;15.00;90.40;;;;;;5019664;28;20540;-75
2023/10/01 07:16:09;;;;;;;16.98;9.60;;;15.00;90.20;;;;;;5016785;28;19917;-73
2023/10/01 07:18:37;;;;;;;21.50;10.50;;;15.10;90.00;;;;;;5017619;28;20124;-75
2023/10/01 07:21:09;;;;;;;18.10;9.52;;;15.10;89.80;;;;;;5019950;28;20410;-73
2023/10/01 07:23:35;;;;;;;21.35;9.77;;;15.20;89.70;;;;;;5017919;28;20095;-73
2023/10/01 07:26:01;;;;;;;14.82;9.38;;;15.20;89.80;;;;;;5014143;28;20818;-72
2023/10/01 07:28:27;;;;;;;18.02;10.55;;;15.30;89.60;;;;;;5015009;28;20089;-73
2023/10/01 07:30:56;;;;;;;20.25;10.07;;;15.40;89.50;;;;;;5019469;28;20060;-72
2023/10/01 07:33:23;;;;;;;18.48;9.43;;;15.50;89.20;;;;;;5017903;28;20080;-72
2023/10/01 07:35:58;;;;;;;20.15;10.50;;;15.60;89.10;;;;;;5018359;28;20580;-73
2023/10/01 07:38:28;;;;;;;21.27;10.43;;;15.70;89.00;;;;;;5013565;28;20037;-71
2023/10/01 07:40:57;;;;;;;17.63;10.07;;;15.90;88.60;;;;;;5012659;28;20041;-74
2023/10/01 07:43:27;;;;;;;15.73;9.73;;;16.00;88.40;;;;;;5012127;28;20419;-75
2023/10/01 07:46:02;;;;;;;18.73;10.13;;;16.10;88.10;;;;;;5015961;28;20034;-78
2023/10/01 07:48:35;;;;;;;19.77;10.10;;;16.30;87.20;;;;;;5015628;28;20122;-72
2023/10/01 07:51:05;;;;;;;18.08;9.57;;;16.40;87.20;;;;;;5013856;28;20072;-72
2023/10/01 07:53:33;;;;;;;19.63;9.95;;;16.60;87.20;;;;;;5014143;28;20029;-74
2023/10/01 07:56:02;;;;;;;20.27;10.18;;;16.70;86.40;;;;;;5018749;28;20041;-72
2023/10/01 07:58:47;;;;;;;19.83;10.13;;;16.90;86.00;;;;;;5017633;28;20029;-72
2023/10/01 08:03:58;;;;;;;17.83;9.43;;;17.20;84.90;;;;;;5016413;28;20080;-76
2023/10/01 08:06:30;;;;;;;17.88;9.82;;;17.40;84.60;;;;;;5013645;28;20354;-72
2023/10/01 08:08:59;;;;;;;20.60;10.73;;;17.60;84.30;;;;;;5019202;28;20222;-73
2023/10/01 08:14:12;;;;;;;18.42;10.13;;;18.00;83.70;;;;;;5013713;28;20367;-71
2023/10/01 08:16:47;;;;;;;18.85;10.32;;;18.20;83.00;;;;;;5014165;28;20030;-74
2023/10/01 08:19:14;;;;;;;18.90;9.70;;;18.30;82.30;;;;;;5010559;28;20064;-71
2023/10/01 08:21:48;;;;;;;18.42;10.32;;;18.50;81.80;;;;;;5016758;28;20862;-72
2023/10/01 08:24:18;;;;;;;21.30;11.15;;;18.60;81.30;;;;;;5016959;28;20052;-72
2023/10/01 08:26:58;;;;;;;18.58;10.23;;;18.70;80.90;;;;;;5015356;28;20124;-72
2023/10/01 08:32:14;;;;;;;19.83;10.50;;;18.80;81.10;;;;;;5015217;28;20099;-73
2023/10/01 08:37:24;;;;;;;18.02;9.80;;;19.00;80.40;;;;;;5014846;28;20040;-71
2023/10/01 08:39:53;;;;;;;22.15;10.38;;;19.20;80.80;;;;;;5018345;28;20403;-73
2023/10/01 08:42:19;;;;;;;19.75;9.93;;;19.20;79.70;;;;;;5011691;28;20022;-74
2023/10/01 08:44:52;;;;;;;19.50;11.18;;;19.50;80.70;;;;;;5019803;28;20180;-72
2023/10/01 08:47:24;;;;;;;19.15;10.38;;;19.60;78.70;;;;;;5018885;28;20045;-72
2023/10/01 08:49:51;;;;;;;21.55;11.02;;;19.70;78.90;;;;;;5018308;28;20068;-75
2023/10/01 08:52:26;;;;;;;17.83;9.60;;;19.80;79.30;;;;;;5009694;28;20388;-70
2023/10/01 08:54:56;;;;;;;16.90;9.77;;;20.00;78.20;;;;;;5018547;28;20033;-73
2023/10/01 08:57:38;;;;;;;19.65;10.18;;;20.10;78.50;;;;;;5013010;28;20049;-73
2023/10/01 09:00:17;;;;;;;19.10;10.00;;;20.20;78.10;;;;;;5015938;28;20053;-74
2023/10/01 09:02:49;;;;;;;18.15;10.20;;;20.30;77.70;;;;;;5015820;28;20328;-73
2023/10/01 09:05:23;;;;;;;19.25;10.40;;;20.40;77.30;;;;;;5016558;28;20117;-72
2023/10/01 09:07:51;;;;;;;19.00;10.63;;;20.40;77.00;;;;;;5005845;28;20029;-74
2023/10/01 09:10:20;;;;;;;16.67;9.63;;;20.60;77.20;;;;;;5018556;28;20040;-75
2023/10/01 09:12:46;;;;;;;16.85;9.30;;;20.70;77.60;;;;;;5011284;28;20037;-74
2023/10/01 09:15:27;;;;;;;17.40;9.95;;;20.90;77.50;;;;;;5011420;28;20037;-74
2023/10/01 09:17:56;;;;;;;17.73;9.63;;;20.90;76.80;;;;;;5015665;28;20048;-73
2023/10/01 09:23:54;;;;;;;18.05;10.40;;;21.00;76.80;;;;;;5009157;28;20083;-77
2023/10/01 09:26:39;;;;;;;19.20;9.95;;;21.20;76.90;;;;;;5015634;28;20034;-74
2023/10/01 09:29:25;;;;;;;18.63;9.70;;;21.20;76.70;;;;;;5016426;28;20117;-73
2023/10/01 09:31:59;;;;;;;22.92;10.32;;;21.20;76.30;;;;;;5020612;28;20749;-76
2023/10/01 09:34:35;;;;;;;18.88;10.02;;;21.30;76.40;;;;;;5017197;28;20050;-74
2023/10/01 09:37:42;;;;;;;17.40;9.65;;;21.40;76.30;;;;;;5013994;28;20029;-75
2023/10/01 09:40:32;;;;;;;20.13;10.25;;;21.60;76.30;;;;;;5019475;28;20022;-72
2023/10/01 09:42:58;;;;;;;16.45;9.13;;;21.70;76.10;;;;;;5012400;28;20460;-78
2023/10/01 09:45:37;;;;;;;18.58;9.90;;;21.80;75.70;;;;;;5020407;28;20042;-79
2023/10/01 09:48:07;;;;;;;18.15;9.20;;;22.00;75.20;;;;;;5016573;28;20044;-74
2023/10/01 09:50:39;;;;;;;21.63;10.05;;;21.90;75.30;;;;;;5018516;28;20516;-73
2023/10/01 09:53:13;;;;;;;19.45;10.65;;;21.90;75.00;;;;;;5015808;28;20046;-74
2023/10/01 09:55:47;;;;;;;16.48;9.13;;;22.00;74.80;;;;;;5009914;28;20462;-73
2023/10/01 09:58:29;;;;;;;17.95;9.65;;;22.10;75.30;;;;;;5015158;28;20075;-74
2023/10/01 10:01:08;;;;;;;18.42;9.70;;;22.30;74.30;;;;;;5016413;28;20755;-77
2023/10/01 10:03:37;;;;;;;18.02;9.65;;;22.30;74.00;;;;;;5017676;28;20602;-75
2023/10/01 10:06:06;;;;;;;17.17;9.32;;;22.60;74.20;;;;;;5020056;28;20092;-75
2023/10/01 10:08:36;;;;;;;17.48;9.60;;;22.60;73.50;;;;;;5016369;28;20042;-75
2023/10/01 10:11:06;;;;;;;19.55;9.35;;;22.60;73.40;;;;;;5012608;28;20037;-73
2023/10/01 10:13:45;;;;;;;16.95;9.55;;;22.60;73.90;;;;;;5016025;28;20037;-74
2023/10/01 10:16:31;;;;;;;17.10;9.38;;;22.80;73.00;;;;;;5016717;28;20121;-72
2023/10/01 10:19:31;;;;;;;18.38;9.55;;;22.80;73.60;;;;;;5013932;28;20029;-71
2023/10/01 10:24:35;;;;;;;20.42;9.27;;;23.00;73.60;;;;;;5020008;28;20112;-73
2023/10/01 10:27:15;;;;;;;19.30;8.75;;;23.10;73.10;;;;;;5020227;28;20026;-75
2023/10/01 10:29:49;;;;;;;18.17;9.35;;;23.20;72.50;;;;;;5016162;28;20049;-75
2023/10/01 10:32:15;;;;;;;19.65;10.02;;;23.30;73.10;;;;;;5017658;28;20036;-73
2023/10/01 10:35:05;;;;;;;17.15;9.65;;;23.30;72.70;;;;;;5018102;28;20049;-73
2023/10/01 10:37:37;;;;;;;16.80;8.85;;;23.40;71.60;;;;;;5023559;28;20476;-74
2023/10/01 10:40:13;;;;;;;18.17;9.45;;;23.50;72.30;;;;;;5020302;28;20045;-74
2023/10/01 10:42:40;;;;;;;18.10;9.75;;;23.60;72.70;;;;;;5019671;28;20026;-73
2023/10/01 10:45:24;;;;;;;15.32;8.38;;;23.80;71.80;;;;;;5021739;28;20117;-72
2023/10/01 10:47:59;;;;;;;;;;;23.80;71.40;;;;;;5014360;28;20218;-73
2023/10/01 10:50:39;;;;;;;18.77;9.82;;;23.70;70.80;;;;;;5012290;28;19921;-72
2023/10/01 10:53:14;;;;;;;17.35;8.63;;;23.70;71.30;;;;;;5014711;28;20045;-75
2023/10/01 10:55:55;;;;;;;17.42;8.85;;;23.70;71.10;;;;;;5019598;28;20499;-74
2023/10/01 10:58:28;;;;;;;17.38;8.88;;;23.90;71.30;;;;;;5015988;28;20487;-73
2023/10/01 11:00:57;;;;;;;16.83;8.88;;;23.90;71.00;;;;;;5018175;28;20045;-75
2023/10/01 11:03:43;;;;;;;17.98;9.15;;;23.90;70.60;;;;;;5011181;28;20046;-74
2023/10/01 11:06:23;;;;;;;16.75;8.55;;;24.00;70.90;;;;;;5013605;28;20033;-72
2023/10/01 11:08:53;;;;;;;17.80;9.07;;;24.10;70.90;;;;;;5008797;28;20420;-72
2023/10/01 11:11:22;;;;;;;16.75;8.60;;;24.10;71.60;;;;;;5013933;28;20025;-72
2023/10/01 11:13:58;;;;;;;18.65;9.15;;;24.10;70.90;;;;;;5009190;28;20029;-73
2023/10/01 11:16:32;;;;;;;16.55;8.88;;;24.30;70.40;;;;;;5013354;28;20025;-71
2023/10/01 11:19:12;;;;;;;18.85;9.80;;;24.30;70.10;;;;;;5018932;28;20041;-71
2023/10/01 11:21:56;;;;;;;19.08;9.10;;;24.30;70.30;;;;;;5013534;28;20068;-72
2023/10/01 11:24:31;;;;;;;15.95;8.32;;;24.30;70.70;;;;;;5010419;28;20038;-73
2023/10/01 11:27:19;;;;;;;17.15;8.60;;;24.40;70.60;;;;;;5011898;28;20574;-75
2023/10/01 11:30:28;;;;;;;16.67;9.00;;;24.60;70.00;;;;;;5008844;28;20126;-70
2023/10/01 11:33:13;;;;;;;16.60;9.02;;;24.60;70.60;;;;;;5009672;28;20033;-72
2023/10/01 11:36:07;;;;;;;17.80;8.20;;;24.80;69.80;;;;;;5012964;28;20391;-72
2023/10/01 11:38:34;;;;;;;15.48;8.57;;;24.70;68.50;;;;;;5025904;28;20064;-74
2023/10/01 11:41:09;;;;;;;16.08;7.95;;;24.70;69.10;;;;;;5025388;28;20029;-69
2023/10/01 11:43:42;;;;;;;16.35;8.65;;;24.90;69.40;;;;;;5020780;28;20092;-75
2023/10/01 11:46:26;;;;;;;18.83;8.47;;;24.90;68.60;;;;;;5013388;28;20103;-71
2023/10/01 11:49:04;;;;;;;18.53;8.83;;;25.00;68.80;;;;;;5009839;28;20450;-71
2023/10/01 11:51:45;;;;;;;16.75;8.82;;;24.90;68.90;;;;;;5013332;28;20076;-71
2023/10/01 11:54:19;;;;;;;18.25;8.68;;;25.00;68.60;;;;;;5009054;28;20038;-72
2023/10/01 11:57:05;;;;;;;16.38;8.00;;;25.10;67.90;;;;;;5012524;28;20366;-73
2023/10/01 11:59:43;;;;;;;17.83;8.60;;;25.10;67.50;;;;;;5009497;28;20041;-71
2023/10/01 12:02:20;;;;;;;16.17;9.27;;;25.00;68.10;;;;;;5011718;28;20033;-73
2023/10/01 12:04:56;;;;;;;18.42;9.48;;;25.00;68.80;;;;;;5010690;28;20436;-73
2023/10/01 12:07:43;;;;;;;15.90;8.57;;;25.10;69.00;;;;;;5007109;28;20030;-72
2023/10/01 12:10:32;;;;;;;16.48;8.35;;;25.20;68.80;;;;;;5010570;28;20395;-71
2023/10/01 12:12:59;;;;;;;15.68;7.95;;;25.20;68.30;;;;;;5006360;28;20041;-74
2023/10/01 12:15:34;;;;;;;18.17;8.30;;;25.30;68.40;;;;;;5008889;28;20072;-73
2023/10/01 12:18:08;;;;;;;16.58;8.70;;;25.30;67.90;;;;;;5006694;28;20450;-74
2023/10/01 12:20:39;;;;;;;15.32;8.40;;;25.60;68.20;;;;;;5009561;28;20128;-74
2023/10/01 12:23:12;;;;;;;16.13;9.48;;;25.50;67.80;;;;;;5005622;28;20025;-73
2023/10/01 12:25:44;;;;;;;15.40;8.35;;;25.60;66.90;;;;;;5008741;28;20046;-71
2023/10/01 12:28:15;;;;;;;16.10;9.15;;;25.80;66.50;;;;;;5011278;28;20531;-70
2023/10/01 12:30:41;;;;;;;16.95;8.35;;;25.80;66.30;;;;;;5014152;28;20150;-71
2023/10/01 12:33:07;;;;;;;15.63;7.95;;;25.70;66.00;;;;;;5016385;28;20407;-71
2023/10/01 12:35:34;;;;;;;15.82;8.85;;;25.70;66.20;;;;;;5020048;28;20030;-73
2023/10/01 12:38:10;;;;;;;16.63;8.88;;;25.70;65.50;;;;;;5021029;28;20030;-70
2023/10/01 12:40:36;;;;;;;15.82;8.50;;;25.60;64.90;;;;;;5013642;28;20140;-73
2023/10/01 12:43:36;;;;;;;16.40;8.32;;;25.60;65.50;;;;;;5021188;28;20124;-70
2023/10/01 12:45:56;;;;;;;14.18;7.65;;;25.70;65.20;;;;;;5013864;28;20066;-70
2023/10/01 12:48:22;;;;;;;15.88;8.52;;;25.70;66.40;;;;;;5021639;28;20041;-74
2023/10/01 12:51:00;;;;;;;15.00;8.77;;;25.70;65.40;;;;;;5016131;28;20038;-73
2023/10/01 12:53:47;;;;;;;16.85;8.85;;;25.80;65.10;;;;;;5013157;28;20483;-70
2023/10/01 12:56:14;;;;;;;14.82;8.27;;;25.80;65.40;;;;;;5014025;28;20110;-69
2023/10/01 12:58:43;;;;;;;22.23;10.32;;;25.80;65.20;;;;;;5012834;28;20060;-70
2023/10/01 13:04:22;;;;;;;17.08;8.85;;;26.00;65.90;;;;;;4955733;28;20586;-73
2023/10/01 13:06:51;;;;;;;17.77;9.55;;;25.90;65.80;;;;;;5010056;28;20376;-74
2023/10/01 13:12:14;;;;;;;16.40;9.13;;;25.80;65.60;;;;;;5022314;28;20503;-73
2023/10/01 13:14:44;;;;;;;16.55;8.77;;;25.60;65.70;;;;;;5016286;28;20057;-73
2023/10/01 13:17:23;;;;;;;15.02;8.25;;;25.70;65.10;;;;;;5016950;28;20241;-73
2023/10/01 13:19:49;;;;;;;16.73;8.63;;;25.80;65.70;;;;;;5013868;28;20626;-73
2023/10/01 13:22:20;;;;;;;14.73;8.30;;;25.90;65.60;;;;;;5015108;28;20096;-73
2023/10/01 13:24:53;;;;;;;15.75;8.80;;;25.80;65.50;;;;;;5021217;28;20513;-70
2023/10/01 13:27:20;;;;;;;15.87;8.20;;;25.90;65.80;;;;;;5014432;28;20483;-73
2023/10/01 13:29:49;;;;;;;14.85;7.72;;;25.90;65.00;;;;;;5020291;28;20169;-73
2023/10/01 13:32:26;;;;;;;16.60;9.20;;;26.00;65.10;;;;;;5012683;28;20014;-72
2023/10/01 13:34:58;;;;;;;17.92;7.95;;;26.00;65.00;;;;;;5022044;28;20065;-71
2023/10/01 13:40:29;;;;;;;16.73;8.27;;;26.00;64.40;;;;;;5019195;28;20116;-71
2023/10/01 14:10:22;;;;;;;;;;;26.10;63.40;;;;;;5015471;28;20040;-74
2023/10/01 14:13:00;;;;;;;18.52;8.10;;;26.00;63.30;;;;;;5016634;28;19905;-70
2023/10/01 14:15:26;;;;;;;15.77;8.32;;;26.00;63.50;;;;;;5013897;28;20025;-70
2023/10/01 14:17:58;;;;;;;16.00;8.05;;;26.00;63.60;;;;;;5017245;28;20013;-70